Kendall, Washington
Current Conditions -  °F | °C
As of 12:13 AM on Thursday 23 Oct 2014 (Local Time) from CYXX Reporting Station
Rain Showers Rain Showers  
Wind Chill: 13°   Ceiling: 3000
Heat Index: 13°   Visibility: 10mi
Dew Point: 11°   Wind: 15mph
Humidity: 88%   Direction: 210°SSW
Pressure: 29.62"   Gusts: 21mph
Location:  48.8512°N, 121.903°W
Report Text: CYXX 230713Z 21013G18KT 10SM -SHRA BKN030TCU OVC070 13/11 A2962 RMK TCU5AC3 SLP032 DENSITY ALT 200FT
Loading
Personal Weather Stations






























Interactive Weather Map
Tropical Storm Tracking
New forecast layout! Learn more

10-Day Weather Forecast

Advertisements
Track Severe Weather on mobile